Time;durP1;ratioP1;P1;durP2;ratioP2;P2;SDS_P1;SDS_P2;PMS_P1;PMS_P2;Temp;Humidity;BMP_temperature;BMP_pressure;BME280_temperature;BME280_humidity;BME280_pressure;Samples;Min_cycle;Max_cycle;Signal;HPM_P1;HPM_P2
2021/04/08 00:01:16;;;;;;;11.07;7.47;;;6.10;95.50;;;;;;5070015;28;20418;-83
2021/04/08 00:03:43;;;;;;;10.90;8.50;;;6.10;95.40;;;;;;5075529;28;20593;-83
2021/04/08 00:06:09;;;;;;;8.27;7.47;;;6.00;95.60;;;;;;5074857;28;20185;-83
2021/04/08 00:08:35;;;;;;;8.70;7.23;;;6.00;95.50;;;;;;5075301;28;20556;-83
2021/04/08 00:11:00;;;;;;;12.57;8.80;;;6.00;95.50;;;;;;5074617;28;20173;-83
2021/04/08 00:13:26;;;;;;;11.23;8.70;;;5.90;95.70;;;;;;5075366;28;20264;-83
2021/04/08 00:15:52;;;;;;;12.37;8.20;;;5.90;96.00;;;;;;5074381;28;20200;-83
2021/04/08 00:18:17;;;;;;;8.50;7.13;;;5.90;96.10;;;;;;5074949;28;20209;-82
2021/04/08 00:20:44;;;;;;;8.27;6.00;;;5.90;96.00;;;;;;5075317;28;20181;-83
2021/04/08 00:23:10;;;;;;;7.20;6.30;;;5.90;96.40;;;;;;5074812;28;20169;-82
2021/04/08 00:25:37;;;;;;;12.47;7.33;;;5.90;96.00;;;;;;5074024;28;20230;-83
2021/04/08 00:28:06;;;;;;;10.85;6.28;;;5.90;96.00;;;;;;5074262;28;20469;-83
2021/04/08 00:30:42;;;;;;;6.40;5.80;;;5.90;95.90;;;;;;5074808;28;20181;-83
2021/04/08 00:33:10;;;;;;;7.57;5.93;;;5.90;95.90;;;;;;5074513;28;20189;-83
2021/04/08 00:35:36;;;;;;;10.82;6.38;;;6.00;96.00;;;;;;5074699;28;20272;-83
2021/04/08 00:38:02;;;;;;;9.70;6.87;;;5.90;96.00;;;;;;5073710;28;20251;-82
2021/04/08 00:40:28;;;;;;;8.35;6.65;;;5.90;96.10;;;;;;5074830;28;20181;-82
2021/04/08 00:42:54;;;;;;;8.02;6.90;;;5.90;96.10;;;;;;5074044;28;20177;-83
2021/04/08 00:45:20;;;;;;;11.60;8.07;;;5.90;96.20;;;;;;5074402;28;20200;-83
2021/04/08 00:47:45;;;;;;;7.90;6.47;;;5.90;96.20;;;;;;5073616;28;20535;-83
2021/04/08 00:50:12;;;;;;;10.23;6.43;;;5.90;96.20;;;;;;5074161;28;20176;-83
2021/04/08 00:52:40;;;;;;;9.85;7.35;;;5.80;96.30;;;;;;5074551;28;20185;-83
2021/04/08 00:55:06;;;;;;;10.57;7.53;;;5.80;96.60;;;;;;5073073;28;20177;-83
2021/04/08 00:57:32;;;;;;;12.27;8.63;;;5.70;96.50;;;;;;5073412;28;20181;-83
2021/04/08 00:59:59;;;;;;;13.27;8.57;;;5.80;96.50;;;;;;5073382;28;20668;-83
2021/04/08 01:02:24;;;;;;;11.23;7.80;;;5.80;96.50;;;;;;5074089;28;20394;-83
2021/04/08 01:04:50;;;;;;;13.20;8.73;;;5.70;96.80;;;;;;5073706;28;20580;-83
2021/04/08 01:07:16;;;;;;;13.93;8.43;;;5.70;96.70;;;;;;5074568;28;20272;-83
2021/04/08 01:09:41;;;;;;;10.07;7.90;;;5.70;96.60;;;;;;5073980;28;20188;-83
2021/04/08 01:12:07;;;;;;;8.23;7.30;;;5.80;96.40;;;;;;5073485;28;20434;-83
2021/04/08 01:14:33;;;;;;;10.80;7.68;;;5.80;96.40;;;;;;5073504;28;20177;-83
2021/04/08 01:17:17;;;;;;;9.03;8.10;;;5.80;96.30;;;;;;5073376;28;20283;-83
2021/04/08 01:20:07;;;;;;;13.93;8.93;;;5.80;96.30;;;;;;5073850;28;20809;-82
2021/04/08 01:22:53;;;;;;;11.32;8.55;;;5.80;96.20;;;;;;5073962;28;20161;-83
2021/04/08 01:25:53;;;;;;;11.13;8.23;;;5.80;96.00;;;;;;5074390;28;20200;-83
2021/04/08 01:28:34;;;;;;;11.00;8.90;;;5.70;96.10;;;;;;5072854;28;20602;-83
2021/04/08 01:31:06;;;;;;;12.75;8.73;;;5.60;96.40;;;;;;5073224;28;20226;-83
2021/04/08 01:33:37;;;;;;;18.27;9.30;;;5.60;96.50;;;;;;5073859;28;20176;-83
2021/04/08 01:36:15;;;;;;;13.20;9.55;;;5.70;96.40;;;;;;5072736;28;20248;-83
2021/04/08 01:38:56;;;;;;;10.40;8.98;;;5.70;96.30;;;;;;5072709;28;20201;-83
2021/04/08 01:41:24;;;;;;;12.95;10.18;;;5.70;96.40;;;;;;5073480;28;20165;-83
2021/04/08 01:43:52;;;;;;;12.73;9.60;;;5.70;96.50;;;;;;5073177;28;20217;-82
2021/04/08 01:46:20;;;;;;;14.63;9.80;;;5.60;96.60;;;;;;5073566;28;20212;-82
2021/04/08 01:48:50;;;;;;;16.25;10.73;;;5.70;96.60;;;;;;5073624;28;20565;-82
2021/04/08 01:51:17;;;;;;;12.65;9.10;;;5.60;96.60;;;;;;5073011;28;20174;-83
2021/04/08 01:53:57;;;;;;;11.90;9.90;;;5.70;96.70;;;;;;5055838;28;20173;-83
2021/04/08 01:56:26;;;;;;;12.27;9.25;;;5.70;96.80;;;;;;5073531;28;20608;-82
2021/04/08 01:58:53;;;;;;;11.93;9.65;;;5.70;96.60;;;;;;5072935;28;20205;-85
2021/04/08 02:01:20;;;;;;;12.05;10.75;;;5.80;96.40;;;;;;5071994;28;20169;-84
2021/04/08 02:03:47;;;;;;;11.82;8.38;;;5.80;96.40;;;;;;5073224;28;20256;-85
2021/04/08 02:06:14;;;;;;;14.32;10.88;;;5.80;96.40;;;;;;5071993;28;20173;-83
2021/04/08 02:08:47;;;;;;;13.20;10.00;;;5.90;96.30;;;;;;5072812;28;20294;-83
2021/04/08 02:11:13;;;;;;;11.95;9.15;;;5.80;96.00;;;;;;5072391;28;20157;-83
2021/04/08 02:13:42;;;;;;;12.15;9.10;;;5.80;96.30;;;;;;5072827;28;20212;-83
2021/04/08 02:16:10;;;;;;;12.68;10.10;;;5.70;96.50;;;;;;5071928;28;20208;-83
2021/04/08 02:18:40;;;;;;;16.80;9.88;;;5.80;96.50;;;;;;5072876;28;20215;-83
2021/04/08 02:21:07;;;;;;;12.93;8.98;;;5.80;96.20;;;;;;5071031;28;20173;-83
2021/04/08 02:23:36;;;;;;;10.13;8.20;;;5.80;96.20;;;;;;5072991;28;20247;-83
2021/04/08 02:26:03;;;;;;;13.70;8.27;;;5.80;96.10;;;;;;5072086;28;20201;-83
2021/04/08 02:28:32;;;;;;;9.25;8.27;;;5.80;96.00;;;;;;5072773;28;20177;-83
2021/04/08 02:30:59;;;;;;;13.98;8.10;;;5.80;95.90;;;;;;5071587;28;20614;-83
2021/04/08 02:33:29;;;;;;;10.18;8.75;;;5.90;96.00;;;;;;5072523;28;20183;-83
2021/04/08 02:35:57;;;;;;;8.98;7.95;;;5.90;95.90;;;;;;5072011;28;20257;-83
2021/04/08 02:38:27;;;;;;;11.75;8.70;;;5.90;96.00;;;;;;5072545;28;20204;-83
2021/04/08 02:40:54;;;;;;;11.77;7.72;;;5.80;95.80;;;;;;5072567;28;20204;-83
2021/04/08 02:43:20;;;;;;;9.77;7.78;;;5.80;95.80;;;;;;5072235;28;20177;-83
2021/04/08 02:45:46;;;;;;;10.85;7.78;;;5.80;95.80;;;;;;5072675;28;20188;-84
2021/04/08 02:48:17;;;;;;;11.93;8.30;;;5.80;95.70;;;;;;5071751;28;20177;-83
2021/04/08 02:50:48;;;;;;;9.75;7.68;;;5.80;95.60;;;;;;5072194;28;20736;-83
2021/04/08 02:53:46;;;;;;;11.98;7.55;;;5.80;95.80;;;;;;5071458;28;20443;-83
2021/04/08 02:56:35;;;;;;;10.07;6.97;;;5.80;95.90;;;;;;5069447;28;20271;-83
2021/04/08 02:59:19;;;;;;;8.45;6.68;;;5.80;95.80;;;;;;5070308;28;20224;-83
2021/04/08 03:02:10;;;;;;;13.48;7.40;;;5.80;95.80;;;;;;5072379;28;20503;-76
2021/04/08 03:04:40;;;;;;;8.90;7.60;;;5.80;95.90;;;;;;5072479;28;20248;-75
2021/04/08 03:07:07;;;;;;;9.15;8.25;;;5.80;95.80;;;;;;5071419;28;20192;-75
2021/04/08 03:09:38;;;;;;;11.85;8.10;;;5.80;95.70;;;;;;5071988;28;20185;-75
2021/04/08 03:12:06;;;;;;;10.80;8.80;;;5.80;95.90;;;;;;5071487;28;20602;-75
2021/04/08 03:14:36;;;;;;;8.80;7.63;;;5.70;95.90;;;;;;5072166;28;20525;-75
2021/04/08 03:17:03;;;;;;;11.93;7.80;;;5.80;95.90;;;;;;5071376;28;20191;-76
2021/04/08 03:19:31;;;;;;;16.17;8.95;;;5.70;96.00;;;;;;5072123;28;20201;-75
2021/04/08 03:22:01;;;;;;;10.77;8.50;;;5.80;96.20;;;;;;5071513;28;20590;-78
2021/04/08 03:24:28;;;;;;;10.10;8.10;;;5.70;96.00;;;;;;5072064;28;20269;-75
2021/04/08 03:26:56;;;;;;;9.52;7.90;;;5.80;96.00;;;;;;5071807;28;20284;-75
2021/04/08 03:29:22;;;;;;;10.50;8.15;;;5.80;96.00;;;;;;5071557;28;20226;-75
2021/04/08 03:31:47;;;;;;;9.33;8.37;;;5.70;96.00;;;;;;5071763;28;20174;-75
2021/04/08 03:34:14;;;;;;;12.53;7.77;;;5.70;96.10;;;;;;5070927;28;20477;-76
2021/04/08 03:36:40;;;;;;;10.07;8.13;;;5.80;96.20;;;;;;5071624;28;20221;-75
2021/04/08 03:39:07;;;;;;;11.90;9.23;;;5.90;96.20;;;;;;5071086;28;20245;-75
2021/04/08 03:41:41;;;;;;;11.10;8.02;;;5.80;96.20;;;;;;5071545;28;20278;-75
2021/04/08 03:44:08;;;;;;;10.75;7.43;;;5.90;96.30;;;;;;5070071;28;20169;-76
2021/04/08 03:46:36;;;;;;;11.98;8.45;;;6.00;96.20;;;;;;5071458;28;20166;-76
2021/04/08 03:49:04;;;;;;;14.85;8.63;;;5.90;95.70;;;;;;5069993;28;20239;-76
2021/04/08 03:51:33;;;;;;;11.55;7.75;;;5.90;95.90;;;;;;5071837;28;20256;-75
2021/04/08 03:54:00;;;;;;;11.85;7.63;;;5.80;95.90;;;;;;5071209;28;20170;-78
2021/04/08 03:56:29;;;;;;;12.75;8.52;;;5.90;96.00;;;;;;5071792;28;20195;-76
2021/04/08 03:58:55;;;;;;;11.57;8.43;;;5.90;96.00;;;;;;5071768;28;20237;-76
2021/04/08 04:01:21;;;;;;;12.90;7.70;;;5.90;95.90;;;;;;5070853;28;20193;-75
2021/04/08 04:03:48;;;;;;;10.35;9.07;;;5.90;95.80;;;;;;5071579;28;20435;-75
2021/04/08 04:06:14;;;;;;;10.88;7.82;;;6.00;95.80;;;;;;5071246;28;20497;-76
2021/04/08 04:08:40;;;;;;;13.55;8.20;;;6.00;95.60;;;;;;5071682;28;20177;-76
2021/04/08 04:11:09;;;;;;;15.20;8.33;;;5.90;95.60;;;;;;5070898;28;20204;-76
2021/04/08 04:13:35;;;;;;;11.50;7.85;;;5.90;95.60;;;;;;5071377;28;20416;-76
2021/04/08 04:16:04;;;;;;;13.13;8.40;;;5.90;95.50;;;;;;5070669;28;20506;-76
2021/04/08 04:18:30;;;;;;;10.80;7.85;;;5.90;95.50;;;;;;5071679;28;20208;-76
2021/04/08 04:20:56;;;;;;;11.13;7.60;;;5.90;95.50;;;;;;5071967;28;20176;-76
2021/04/08 04:23:22;;;;;;;12.10;7.60;;;5.90;95.60;;;;;;5071398;28;20256;-76
2021/04/08 04:25:48;;;;;;;7.70;6.88;;;5.90;95.70;;;;;;5071595;28;20176;-75
2021/04/08 04:28:14;;;;;;;9.97;6.77;;;5.90;95.70;;;;;;5070155;28;20173;-76
2021/04/08 04:30:39;;;;;;;10.20;7.47;;;5.90;95.50;;;;;;5074970;28;20867;-76
2021/04/08 04:33:05;;;;;;;11.40;6.80;;;5.90;95.50;;;;;;5074605;28;20203;-75
2021/04/08 04:35:31;;;;;;;7.43;6.20;;;5.90;95.50;;;;;;5074276;28;20170;-76
2021/04/08 04:37:57;;;;;;;7.23;6.50;;;5.90;95.20;;;;;;5075522;28;20165;-76
2021/04/08 04:40:22;;;;;;;8.93;6.80;;;5.90;95.30;;;;;;5074237;28;20209;-76
2021/04/08 04:42:48;;;;;;;11.70;7.13;;;5.90;95.20;;;;;;5074586;28;20181;-75
2021/04/08 04:45:15;;;;;;;8.23;6.33;;;5.80;95.20;;;;;;5074015;28;20514;-75
2021/04/08 04:47:42;;;;;;;8.35;6.85;;;5.90;95.20;;;;;;5074381;28;20652;-75
2021/04/08 04:50:09;;;;;;;7.80;6.10;;;5.90;95.30;;;;;;5073776;28;20177;-76
2021/04/08 04:52:35;;;;;;;6.93;5.50;;;5.90;95.10;;;;;;5074586;28;20290;-75
2021/04/08 04:55:01;;;;;;;8.00;6.37;;;5.90;95.10;;;;;;5074167;28;20169;-77
2021/04/08 04:57:27;;;;;;;7.97;6.40;;;5.90;95.20;;;;;;5074913;28;20486;-75
2021/04/08 04:59:53;;;;;;;8.40;6.10;;;5.90;95.10;;;;;;5074731;28;20500;-75
2021/04/08 05:02:18;;;;;;;6.17;5.47;;;5.80;95.00;;;;;;5074506;28;20505;-75
2021/04/08 05:04:44;;;;;;;10.90;6.20;;;5.80;95.00;;;;;;5074917;28;20169;-75
2021/04/08 05:07:10;;;;;;;6.33;5.20;;;5.80;95.20;;;;;;5074177;28;20626;-75
2021/04/08 05:09:35;;;;;;;5.97;4.90;;;5.90;95.30;;;;;;5074785;28;20184;-75
2021/04/08 05:12:01;;;;;;;8.00;5.47;;;5.90;95.20;;;;;;5074737;28;20169;-75
2021/04/08 05:14:27;;;;;;;8.73;5.70;;;5.90;95.10;;;;;;5074566;28;20176;-75
2021/04/08 05:16:54;;;;;;;10.43;5.67;;;5.90;95.30;;;;;;5074157;28;20908;-75
2021/04/08 05:19:20;;;;;;;6.30;4.55;;;6.00;95.20;;;;;;5073688;28;20204;-75
2021/04/08 05:21:49;;;;;;;8.73;5.45;;;6.00;95.00;;;;;;5074309;28;20174;-75
2021/04/08 05:24:14;;;;;;;7.38;5.82;;;6.00;95.20;;;;;;5073672;28;20256;-75
2021/04/08 05:26:41;;;;;;;6.30;4.83;;;6.00;95.20;;;;;;5074579;28;20204;-76
2021/04/08 05:29:06;;;;;;;6.10;4.80;;;6.10;95.20;;;;;;5072675;28;20177;-76
2021/04/08 05:31:32;;;;;;;11.00;6.23;;;6.10;95.10;;;;;;5074379;28;20215;-75
2021/04/08 05:33:58;;;;;;;6.60;5.20;;;6.10;95.00;;;;;;5074281;28;20201;-75
2021/04/08 05:36:23;;;;;;;10.97;5.30;;;6.10;95.00;;;;;;5073461;28;20225;-76
2021/04/08 05:38:49;;;;;;;8.90;5.67;;;6.10;95.20;;;;;;5074251;28;20255;-76
2021/04/08 05:41:15;;;;;;;6.03;5.33;;;6.20;95.20;;;;;;5072467;28;20188;-76
2021/04/08 05:43:42;;;;;;;8.70;5.70;;;6.10;95.10;;;;;;5074091;28;20162;-75
2021/04/08 05:46:09;;;;;;;8.35;5.90;;;6.10;95.00;;;;;;5073608;28;20165;-76
2021/04/08 05:48:36;;;;;;;6.88;5.20;;;6.10;95.10;;;;;;5073935;28;20192;-76
2021/04/08 05:51:02;;;;;;;9.93;6.17;;;6.10;95.00;;;;;;5074044;28;20169;-76
2021/04/08 05:53:28;;;;;;;11.47;6.33;;;6.10;95.00;;;;;;5073368;28;20465;-76
2021/04/08 05:55:53;;;;;;;8.40;5.37;;;6.10;95.10;;;;;;5073988;28;20875;-75
2021/04/08 05:58:19;;;;;;;6.30;5.70;;;6.10;95.10;;;;;;5073205;28;20172;-75
2021/04/08 06:00:45;;;;;;;7.90;5.87;;;6.20;95.30;;;;;;5073861;28;20166;-75
2021/04/08 06:03:10;;;;;;;7.87;5.80;;;6.20;95.00;;;;;;5073207;28;20169;-76
2021/04/08 06:05:36;;;;;;;9.70;4.90;;;6.20;95.00;;;;;;5073719;28;20245;-76
2021/04/08 06:08:02;;;;;;;6.57;5.53;;;6.20;95.10;;;;;;5073718;28;20169;-75
2021/04/08 06:10:28;;;;;;;6.10;5.38;;;6.30;95.20;;;;;;5073005;28;20379;-76
2021/04/08 06:12:55;;;;;;;8.45;4.88;;;6.30;95.00;;;;;;5073847;28;20184;-76
2021/04/08 06:15:21;;;;;;;8.20;5.75;;;6.40;94.90;;;;;;5072689;28;20210;-76
2021/04/08 06:17:46;;;;;;;6.22;5.13;;;6.40;94.70;;;;;;5073423;28;20567;-75
2021/04/08 06:20:13;;;;;;;6.43;5.03;;;6.40;94.70;;;;;;5072749;28;20283;-76
2021/04/08 06:22:38;;;;;;;5.45;4.95;;;6.50;94.60;;;;;;5073393;28;20482;-75
2021/04/08 06:25:05;;;;;;;6.47;5.23;;;6.50;94.50;;;;;;5073349;28;20173;-76
2021/04/08 06:27:33;;;;;;;6.55;4.70;;;6.60;94.50;;;;;;5072977;28;20166;-75
2021/04/08 06:29:59;;;;;;;6.82;4.60;;;6.60;94.40;;;;;;5073589;28;20628;-75
2021/04/08 06:32:25;;;;;;;7.00;4.80;;;6.60;94.40;;;;;;5072214;28;20319;-76
2021/04/08 06:34:51;;;;;;;8.30;5.47;;;6.60;94.30;;;;;;5073067;28;20173;-76
2021/04/08 06:37:17;;;;;;;6.77;6.13;;;6.60;94.10;;;;;;5072711;28;20225;-76
2021/04/08 06:39:42;;;;;;;8.27;5.00;;;6.70;94.10;;;;;;5072952;28;20209;-76
2021/04/08 06:42:09;;;;;;;6.20;5.03;;;6.70;94.00;;;;;;5072378;28;20465;-76
2021/04/08 06:44:37;;;;;;;8.23;5.50;;;6.70;94.20;;;;;;5072547;28;20205;-77
2021/04/08 06:47:05;;;;;;;11.10;5.50;;;6.80;94.20;;;;;;5072871;28;20390;-75
2021/04/08 06:49:44;;;;;;;6.00;5.30;;;6.80;94.40;;;;;;5072573;28;20415;-75
2021/04/08 06:52:11;;;;;;;7.80;5.80;;;6.80;94.00;;;;;;5071996;28;20947;-75
2021/04/08 06:54:38;;;;;;;5.85;5.30;;;6.80;93.80;;;;;;5081056;28;20781;-75
2021/04/08 06:57:05;;;;;;;11.77;5.77;;;6.80;93.90;;;;;;5075683;28;20178;-75
2021/04/08 06:59:31;;;;;;;10.83;5.63;;;6.80;93.90;;;;;;5050904;28;20431;-75
2021/04/08 07:01:59;;;;;;;10.33;6.00;;;6.90;93.90;;;;;;5051677;28;20409;-76
2021/04/08 07:04:25;;;;;;;8.10;5.80;;;6.90;93.70;;;;;;5052023;28;20397;-75
2021/04/08 07:06:50;;;;;;;6.50;5.90;;;6.90;93.60;;;;;;5054966;28;20412;-76
2021/04/08 07:09:16;;;;;;;6.17;5.53;;;6.90;93.80;;;;;;5072081;28;20396;-76
2021/04/08 07:11:42;;;;;;;7.77;6.20;;;6.90;93.80;;;;;;5072415;28;20375;-75
2021/04/08 07:14:10;;;;;;;9.17;5.83;;;6.90;93.50;;;;;;5072445;28;20195;-73
2021/04/08 07:16:37;;;;;;;8.83;6.33;;;7.00;93.20;;;;;;5077591;28;20394;-74
2021/04/08 07:19:07;;;;;;;9.63;8.10;;;7.10;93.10;;;;;;5080979;28;20467;-74
2021/04/08 07:21:36;;;;;;;7.90;5.53;;;7.10;92.90;;;;;;5071669;28;20482;-74
2021/04/08 07:24:24;;;;;;;8.20;5.80;;;7.10;92.60;;;;;;5072316;28;20770;-74
2021/04/08 07:26:54;;;;;;;6.80;6.10;;;7.20;92.60;;;;;;5072342;28;20436;-75
2021/04/08 07:29:21;;;;;;;10.13;6.83;;;7.20;92.60;;;;;;5071367;28;20473;-75
2021/04/08 07:31:47;;;;;;;8.53;6.23;;;7.30;92.90;;;;;;5072114;28;20488;-75
2021/04/08 07:34:35;;;;;;;11.40;7.13;;;7.40;92.70;;;;;;5071496;28;20395;-76
2021/04/08 07:37:01;;;;;;;11.97;7.80;;;7.30;92.40;;;;;;5071963;28;20459;-77
2021/04/08 07:39:52;;;;;;;8.00;6.53;;;7.30;92.10;;;;;;5071347;28;20487;-75
2021/04/08 07:42:24;;;;;;;10.30;7.40;;;7.50;92.30;;;;;;5071418;28;20383;-76
2021/04/08 07:44:58;;;;;;;8.43;6.73;;;7.50;92.00;;;;;;5072219;28;20463;-76
2021/04/08 07:47:35;;;;;;;8.43;7.50;;;7.50;91.80;;;;;;5071258;28;20899;-76
2021/04/08 07:50:04;;;;;;;7.80;6.93;;;7.60;91.60;;;;;;5072559;28;20390;-76
2021/04/08 07:52:32;;;;;;;9.67;7.47;;;7.70;91.90;;;;;;5071755;28;20509;-76
2021/04/08 07:55:19;;;;;;;8.53;7.63;;;7.70;91.30;;;;;;5070795;28;20387;-75
2021/04/08 07:57:53;;;;;;;12.90;7.30;;;7.80;90.70;;;;;;5069893;28;20424;-76
2021/04/08 08:00:25;;;;;;;8.73;7.30;;;7.80;91.40;;;;;;5071784;28;20436;-74
2021/04/08 08:02:51;;;;;;;9.80;7.50;;;7.90;90.30;;;;;;5072089;28;20406;-74
2021/04/08 08:05:18;;;;;;;9.13;7.53;;;8.00;90.20;;;;;;5074422;28;20414;-74
2021/04/08 08:07:45;;;;;;;10.70;7.60;;;8.10;90.30;;;;;;5076138;28;20421;-74
2021/04/08 08:10:18;;;;;;;10.50;7.60;;;8.20;90.50;;;;;;5075850;28;20735;-74
2021/04/08 08:12:44;;;;;;;11.00;7.10;;;8.20;90.30;;;;;;5075847;28;20384;-74
2021/04/08 08:15:16;;;;;;;7.07;6.47;;;8.30;89.80;;;;;;5075792;28;20927;-74
2021/04/08 08:17:42;;;;;;;8.07;6.40;;;8.30;89.30;;;;;;5075901;28;20475;-74
2021/04/08 08:20:09;;;;;;;9.23;6.90;;;8.40;87.90;;;;;;5075663;28;20470;-74
2021/04/08 08:22:36;;;;;;;6.83;6.23;;;8.50;86.80;;;;;;5075247;28;20543;-74
2021/04/08 08:25:04;;;;;;;10.60;6.33;;;8.50;85.90;;;;;;5073826;28;20880;-74
2021/04/08 08:27:43;;;;;;;8.20;6.60;;;8.50;83.50;;;;;;5073405;28;20488;-74
2021/04/08 08:30:16;;;;;;;7.60;6.90;;;8.60;85.50;;;;;;5075116;28;20916;-75
2021/04/08 08:33:17;;;;;;;9.23;7.40;;;8.70;84.90;;;;;;5069421;28;20422;-74
2021/04/08 08:35:44;;;;;;;7.80;7.20;;;8.70;83.70;;;;;;5073552;28;20972;-74
2021/04/08 08:38:19;;;;;;;7.70;6.77;;;8.80;83.90;;;;;;5073877;28;20871;-74
2021/04/08 08:40:47;;;;;;;10.83;7.10;;;8.90;81.70;;;;;;5074649;28;20442;-74
2021/04/08 08:43:16;;;;;;;8.40;7.60;;;8.90;80.10;;;;;;5074827;28;20439;-74
2021/04/08 08:45:42;;;;;;;8.83;7.37;;;9.00;81.30;;;;;;5074013;28;20442;-75
2021/04/08 08:48:18;;;;;;;10.40;7.67;;;9.10;81.70;;;;;;5074485;28;20489;-75
2021/04/08 08:50:44;;;;;;;7.20;6.60;;;9.10;79.60;;;;;;5074920;28;20411;-77
2021/04/08 08:53:12;;;;;;;7.87;7.13;;;9.10;77.50;;;;;;5074648;28;20406;-74
2021/04/08 08:55:39;;;;;;;9.40;7.00;;;9.20;76.80;;;;;;5073599;28;20430;-74
2021/04/08 08:58:10;;;;;;;7.43;6.60;;;9.30;77.40;;;;;;5074448;28;20422;-74
2021/04/08 09:00:36;;;;;;;7.00;6.40;;;9.40;76.10;;;;;;5074287;28;20451;-75
2021/04/08 09:03:04;;;;;;;5.50;5.00;;;9.50;75.00;;;;;;5074897;28;20490;-74
2021/04/08 09:05:34;;;;;;;6.40;5.90;;;9.60;73.40;;;;;;5074206;28;20180;-75
2021/04/08 09:08:08;;;;;;;6.90;6.27;;;9.70;73.10;;;;;;5075253;28;20418;-74
2021/04/08 09:10:39;;;;;;;7.40;5.73;;;9.80;73.10;;;;;;5074202;28;20398;-74
2021/04/08 09:13:05;;;;;;;8.43;6.80;;;9.80;72.30;;;;;;5074827;28;20488;-77
2021/04/08 09:15:31;;;;;;;6.10;5.50;;;9.80;71.30;;;;;;5073678;28;20799;-75
2021/04/08 09:18:01;;;;;;;5.87;5.23;;;9.90;71.50;;;;;;5074726;28;20422;-77
2021/04/08 09:20:27;;;;;;;7.93;6.23;;;10.10;68.80;;;;;;5073943;28;20228;-75
2021/04/08 09:22:59;;;;;;;6.80;6.10;;;10.10;68.10;;;;;;5074228;28;20454;-74
2021/04/08 09:25:29;;;;;;;6.37;5.70;;;10.20;68.50;;;;;;5073644;28;20449;-75
2021/04/08 09:27:58;;;;;;;10.20;5.60;;;10.20;71.20;;;;;;5074387;28;20415;-75
2021/04/08 09:31:29;;;;;;;6.30;5.00;;;10.20;68.70;;;;;;5073737;28;20464;-75
2021/04/08 09:33:43;;;;;;;8.93;5.70;;;10.20;64.80;;;;;;5069662;28;20443;-74
2021/04/08 09:36:18;;;;;;;6.30;5.70;;;10.00;63.60;;;;;;5073828;28;20809;-74
2021/04/08 09:38:44;;;;;;;5.03;4.60;;;10.00;64.70;;;;;;5074190;28;20454;-77
2021/04/08 09:41:10;;;;;;;5.10;4.67;;;9.90;67.20;;;;;;5074132;28;20438;-74
2021/04/08 09:43:37;;;;;;;4.63;4.23;;;9.90;65.70;;;;;;5073367;28;20442;-74
2021/04/08 09:46:06;;;;;;;4.60;4.20;;;9.80;63.10;;;;;;5074528;28;20607;-75
2021/04/08 09:48:52;;;;;;;7.03;5.10;;;9.70;61.20;;;;;;5073214;28;20411;-74
2021/04/08 09:51:30;;;;;;;5.00;4.50;;;9.70;61.90;;;;;;5073550;28;20929;-76
2021/04/08 09:53:56;;;;;;;6.03;5.43;;;9.60;62.70;;;;;;5073957;28;20843;-75
2021/04/08 09:56:55;;;;;;;6.30;5.70;;;9.60;65.00;;;;;;5073221;28;20756;-75
2021/04/08 09:59:23;;;;;;;6.00;5.33;;;9.50;66.50;;;;;;5073352;28;20435;-75
2021/04/08 10:01:51;;;;;;;5.73;5.23;;;9.50;66.30;;;;;;5073712;28;20419;-74
2021/04/08 10:04:25;;;;;;;5.67;5.13;;;9.50;66.10;;;;;;5073357;28;20899;-74
2021/04/08 10:07:06;;;;;;;6.30;5.70;;;9.40;64.10;;;;;;5074204;28;20859;-74
2021/04/08 10:09:32;;;;;;;4.90;4.40;;;9.30;64.80;;;;;;5073019;28;20450;-76
2021/04/08 10:11:59;;;;;;;5.13;4.73;;;9.20;64.00;;;;;;5073540;28;20412;-75
2021/04/08 10:14:30;;;;;;;4.80;4.40;;;9.20;64.30;;;;;;5072765;28;20506;-75
2021/04/08 10:17:10;;;;;;;4.73;3.90;;;9.20;62.70;;;;;;5072893;28;20414;-75
2021/04/08 10:19:39;;;;;;;4.87;4.47;;;9.10;61.20;;;;;;5072707;28;20447;-75
2021/04/08 10:22:05;;;;;;;4.03;3.67;;;9.20;61.80;;;;;;5073082;28;20604;-75
2021/04/08 10:24:36;;;;;;;4.40;4.00;;;9.20;60.80;;;;;;5072707;28;20850;-75
2021/04/08 10:27:23;;;;;;;3.97;3.50;;;9.20;62.00;;;;;;5072687;28;20418;-75
2021/04/08 10:29:50;;;;;;;4.63;4.07;;;9.20;60.50;;;;;;5073612;28;20403;-75
2021/04/08 10:32:35;;;;;;;3.77;3.30;;;9.20;61.80;;;;;;5072927;28;20407;-75
2021/04/08 10:35:02;;;;;;;4.60;4.30;;;9.20;61.00;;;;;;5073110;28;20442;-75
2021/04/08 10:37:28;;;;;;;4.77;4.20;;;9.20;61.60;;;;;;5072517;28;20451;-75
2021/04/08 10:39:54;;;;;;;4.83;4.03;;;9.30;63.10;;;;;;5072916;28;20455;-75
2021/04/08 10:42:21;;;;;;;4.73;4.00;;;9.30;61.20;;;;;;5072982;28;20419;-75
2021/04/08 10:44:52;;;;;;;6.33;4.00;;;9.40;62.40;;;;;;5073161;28;20267;-75
2021/04/08 10:47:20;;;;;;;5.20;4.30;;;9.50;61.70;;;;;;5073036;28;20416;-75
2021/04/08 10:50:04;;;;;;;4.37;3.87;;;9.60;61.70;;;;;;5072586;28;20431;-75
2021/04/08 10:52:35;;;;;;;5.37;4.87;;;9.50;59.30;;;;;;5071999;28;20908;-75
2021/04/08 10:55:13;;;;;;;4.60;4.20;;;9.60;58.80;;;;;;5072785;28;20419;-75
2021/04/08 10:57:41;;;;;;;4.97;3.77;;;9.60;58.50;;;;;;5072193;28;20395;-75
2021/04/08 11:00:09;;;;;;;4.57;4.27;;;9.70;59.20;;;;;;5072649;28;20447;-75
2021/04/08 11:02:41;;;;;;;5.00;4.50;;;9.80;59.50;;;;;;5072052;28;20490;-75
2021/04/08 11:05:24;;;;;;;4.83;4.40;;;9.80;56.50;;;;;;5072709;28;20876;-75
2021/04/08 11:07:56;;;;;;;5.60;5.10;;;9.90;55.70;;;;;;5072679;28;20454;-75
2021/04/08 11:10:30;;;;;;;4.73;4.43;;;9.90;55.10;;;;;;5072825;28;20496;-75
2021/04/08 11:12:57;;;;;;;4.47;4.07;;;9.90;56.00;;;;;;5072630;28;20399;-75
2021/04/08 11:15:26;;;;;;;5.03;4.63;;;10.00;55.40;;;;;;5072233;28;20454;-77
2021/04/08 11:17:54;;;;;;;5.07;4.30;;;10.00;54.80;;;;;;5072539;28;20408;-75
2021/04/08 11:20:41;;;;;;;5.60;5.10;;;10.00;54.80;;;;;;5072191;28;20806;-75
2021/04/08 11:23:09;;;;;;;5.80;5.10;;;10.10;55.60;;;;;;5072431;28;20412;-75
2021/04/08 11:25:36;;;;;;;4.97;4.53;;;10.20;54.40;;;;;;5071859;28;20406;-75
2021/04/08 11:28:04;;;;;;;5.30;4.90;;;10.20;54.40;;;;;;5072427;28;20393;-76
2021/04/08 11:30:38;;;;;;;6.60;6.00;;;10.10;54.20;;;;;;5071936;28;20408;-76
2021/04/08 11:33:19;;;;;;;6.40;5.90;;;10.00;54.00;;;;;;5072280;28;20891;-75
2021/04/08 11:35:46;;;;;;;7.47;6.73;;;10.00;54.50;;;;;;5070150;28;20519;-75
2021/04/08 11:38:13;;;;;;;8.90;6.30;;;10.00;54.40;;;;;;5073656;28;20399;-76
2021/04/08 11:40:45;;;;;;;6.63;6.07;;;9.90;54.40;;;;;;5075799;28;20455;-76
2021/04/08 11:43:22;;;;;;;6.47;5.93;;;9.90;55.60;;;;;;5076372;28;20469;-76
2021/04/08 11:45:49;;;;;;;6.80;5.50;;;9.80;55.10;;;;;;5075484;28;20406;-76
2021/04/08 11:48:16;;;;;;;5.90;5.30;;;9.80;56.60;;;;;;5076245;28;20516;-75
2021/04/08 11:50:45;;;;;;;8.70;6.33;;;9.90;56.40;;;;;;5075582;28;20766;-76
2021/04/08 11:53:16;;;;;;;7.60;6.90;;;9.80;56.70;;;;;;5076202;28;20411;-75
2021/04/08 11:55:47;;;;;;;6.40;5.90;;;9.90;56.60;;;;;;5075636;28;20806;-76
2021/04/08 11:58:24;;;;;;;8.33;7.67;;;9.90;57.30;;;;;;5076014;28;20803;-76
2021/04/08 12:00:50;;;;;;;8.17;7.60;;;9.90;57.90;;;;;;5074204;28;20442;-75
2021/04/08 12:03:18;;;;;;;7.13;6.47;;;10.00;56.60;;;;;;5076037;28;20400;-75
2021/04/08 12:05:44;;;;;;;9.00;7.00;;;10.00;55.90;;;;;;5075362;28;20430;-76
2021/04/08 12:08:11;;;;;;;6.73;6.23;;;10.20;56.10;;;;;;5074798;28;20440;-75
2021/04/08 12:10:38;;;;;;;6.73;6.23;;;10.20;55.00;;;;;;5075238;28;20418;-76
2021/04/08 12:13:11;;;;;;;7.50;6.90;;;10.20;54.80;;;;;;5075885;28;20411;-76
2021/04/08 12:15:38;;;;;;;7.43;6.83;;;10.30;54.50;;;;;;5075016;28;20458;-76
2021/04/08 12:18:24;;;;;;;8.10;7.50;;;10.30;54.10;;;;;;5075453;28;20404;-76
2021/04/08 12:20:51;;;;;;;7.23;6.60;;;10.40;54.50;;;;;;5075208;28;20432;-76
2021/04/08 12:23:21;;;;;;;8.80;7.67;;;10.40;54.50;;;;;;5075250;28;20399;-76
2021/04/08 12:25:54;;;;;;;6.77;6.17;;;10.40;53.30;;;;;;5074997;28;20502;-76
2021/04/08 12:28:22;;;;;;;6.80;6.20;;;10.40;51.90;;;;;;5075486;28;20403;-76
2021/04/08 12:31:00;;;;;;;7.60;6.93;;;10.40;53.10;;;;;;5074974;28;20412;-75
2021/04/08 12:33:28;;;;;;;9.00;8.20;;;10.40;52.10;;;;;;5075818;28;20813;-76
2021/04/08 12:35:55;;;;;;;7.90;7.20;;;10.40;52.40;;;;;;5074879;28;20542;-75
2021/04/08 12:38:21;;;;;;;9.90;9.10;;;10.30;51.80;;;;;;5075496;28;20408;-75
2021/04/08 12:40:47;;;;;;;9.53;8.87;;;10.30;52.70;;;;;;5074682;28;20478;-76
2021/04/08 12:43:13;;;;;;;10.30;9.50;;;10.40;53.30;;;;;;5074096;28;20455;-76
2021/04/08 12:45:39;;;;;;;9.10;8.23;;;10.50;54.50;;;;;;5073462;28;20423;-76
2021/04/08 12:48:06;;;;;;;9.27;8.57;;;10.50;52.70;;;;;;5075358;28;20174;-76
2021/04/08 12:50:32;;;;;;;8.43;7.63;;;10.50;53.00;;;;;;5073917;28;20185;-76
2021/04/08 12:52:57;;;;;;;8.90;8.30;;;10.50;52.50;;;;;;5075023;28;20434;-75
2021/04/08 12:55:26;;;;;;;9.40;8.70;;;10.50;52.90;;;;;;5075036;28;20415;-76
2021/04/08 12:57:54;;;;;;;9.03;8.13;;;10.50;53.70;;;;;;5073179;28;20399;-76
2021/04/08 13:00:20;;;;;;;8.17;7.57;;;10.50;52.00;;;;;;5074817;28;20451;-75
2021/04/08 13:02:46;;;;;;;9.90;9.10;;;10.50;53.90;;;;;;5074277;28;20403;-76
2021/04/08 13:05:12;;;;;;;9.80;9.00;;;10.50;53.80;;;;;;5075034;28;20489;-76